ADDS METAR Data INFO
IDs: Format: Raw Decoded Include TAF

Data at: 0215 UTC 18 Jan 2018

KACP 180155Z AUTO 00000KT 10SM CLR M04/M10 A3064 RMK AO2 T10371102
KACP 180135Z AUTO 01003KT 10SM CLR M03/M11 A3064 RMK AO2 T10331110
KACP 180115Z AUTO 36003KT 10SM CLR M03/M11 A3063 RMK AO2 T10311109
KACP 180055Z AUTO 00000KT 10SM CLR M03/M11 A3063 RMK AO2 T10281110
KACP 180035Z AUTO 00000KT 10SM CLR M02/M11 A3063 RMK AO2 T10211115
KACP 180015Z AUTO 01003KT 10SM CLR M02/M12 A3063 RMK AO2 T10161121
KACP 172355Z AUTO 02003KT 10SM CLR M01/M12 A3063 RMK AO2 T10121124 10011 21020
KACP 172335Z AUTO 02004KT 10SM CLR M01/M13 A3063 RMK AO2 T10071127
KACP 172315Z AUTO 01007KT 10SM CLR 00/M13 A3063 RMK AO2 T00001127
KACP 172255Z AUTO 03006KT 10SM CLR 00/M12 A3063 RMK AO2 T00021125
KACP 172235Z AUTO 01007KT 10SM CLR 01/M12 A3063 RMK AO2 T00061122
KACP 172215Z AUTO 01010KT 10SM CLR 01/M12 A3063 RMK AO2 T00091122
KACP 172155Z AUTO 35009KT 10SM CLR 01/M12 A3063 RMK AO2 T00071122
KACP 172135Z AUTO 02011G16KT 10SM CLR 01/M12 A3063 RMK AO2 T00081125
KACP 172115Z AUTO 35010G15KT 10SM CLR 01/M12 A3063 RMK AO2 T00071120
KACP 172055Z AUTO 02007G14KT 10SM CLR 01/M12 A3064 RMK AO2 T00071125
KACP 172035Z AUTO 02011G20KT 10SM CLR 01/M12 A3064 RMK AO2 T00051123
KACP 172015Z AUTO 36011G17KT 10SM CLR 01/M12 A3064 RMK AO2 T00061116
KACP 171955Z AUTO 35009G16KT 10SM CLR 00/M12 A3065 RMK AO2 T00001118
KACP 171935Z AUTO 35010G16KT 10SM CLR 00/M12 A3065 RMK AO2 T00001118
KACP 171915Z AUTO 36010G14KT 10SM CLR 00/M11 A3066 RMK AO2 T10031115
KACP 171855Z AUTO 02007KT 10SM CLR 00/M12 A3067 RMK AO2 T10031120
KACP 171835Z AUTO 01006KT 10SM CLR M01/M12 A3069 RMK AO2 T10111119
KACP 171815Z AUTO 35009KT 10SM CLR M02/M12 A3070 RMK AO2 T10161121
KACP 171755Z AUTO 36006KT 10SM CLR M02/M12 A3072 RMK AO2 T10181120 11018 21091
KACP 171735Z AUTO 01007KT 340V040 10SM CLR M03/M12 A3073 RMK AO2 T10261125
KACP 171715Z AUTO 35007KT 10SM CLR M03/M12 A3074 RMK AO2 T10301125
KACP 171655Z AUTO 01007KT 330V030 10SM CLR M04/M13 A3075 RMK AO2 T10381130
KACP 171635Z AUTO 01008G14KT 10SM CLR M04/M13 A3075 RMK AO2 T10441133
KACP 171615Z AUTO 34009G14KT 10SM CLR M05/M13 A3076 RMK AO2 T10491132
KACP 171555Z AUTO 03008G14KT 10SM CLR M05/M14 A3076 RMK AO2 T10551142
KACP 171535Z AUTO 01007G15KT 10SM CLR M06/M14 A3075 RMK AO2 T10601144
KACP 171515Z AUTO 01007G14KT 10SM CLR M06/M14 A3075 RMK AO2 T10641144
KACP 171455Z AUTO 36008G15KT 10SM CLR M07/M15 A3075 RMK AO2 T10701146
KACP 171435Z AUTO 36007KT 10SM CLR M07/M15 A3074 RMK AO2 T10751147
KACP 171415Z AUTO 36009KT 10SM CLR M08/M15 A3073 RMK AO2 T10801147
KACP 171355Z AUTO 02009KT 10SM CLR M08/M15 A3073 RMK AO2 T10851149
KACP 171335Z AUTO 02007KT 10SM CLR M09/M15 A3072 RMK AO2 T10901150
KACP 171315Z AUTO 01006KT 10SM CLR M09/M15 A3072 RMK AO2 T10901150
KACP 171255Z AUTO 36007G15KT 10SM CLR M09/M15 A3071 RMK AO2 T10881147
KACP 171235Z AUTO 01008G14KT 10SM CLR M09/M14 A3070 RMK AO2 T10881145
KACP 171215Z AUTO 36008KT 10SM CLR M09/M14 A3070 RMK AO2 T10871141
KACP 171155Z AUTO 02010G14KT 10SM CLR M08/M14 A3070 RMK AO2 70010 T10851145 11046 21085
KACP 171135Z AUTO 01009G15KT 10SM CLR M08/M14 A3069 RMK AO2 T10851137
KACP 171115Z AUTO 01003KT 10SM CLR M08/M13 A3069 RMK AO2 T10851126
KACP 171055Z AUTO 03003KT 10SM CLR M08/M13 A3069 RMK AO2 T10811128
KACP 171035Z AUTO 02004KT 10SM CLR M08/M13 A3068 RMK AO2 T10781130
KACP 171015Z AUTO 02005KT 10SM CLR M07/M13 A3068 RMK AO2 T10751133
KACP 170955Z AUTO 01009KT 10SM CLR M07/M14 A3068 RMK AO2 T10711136
KACP 170935Z AUTO 01010G14KT 10SM CLR M07/M13 A3067 RMK AO2 T10681135
KACP 170915Z AUTO 02008KT 10SM CLR M07/M13 A3067 RMK AO2 T10671128
KACP 170855Z AUTO 02008KT 10SM CLR M06/M11 A3067 RMK AO2 T10651110
KACP 170835Z AUTO 01004KT 10SM CLR M06/M11 A3067 RMK AO2 T10631108
KACP 170815Z AUTO 36006KT 10SM CLR M06/M11 A3067 RMK AO2 T10611107
KACP 170755Z AUTO 36005KT 10SM CLR M06/M11 A3067 RMK AO2 T10621107
KACP 170735Z AUTO 36006KT 10SM CLR M06/M11 A3067 RMK AO2 T10581110
KACP 170715Z AUTO 36006KT 10SM CLR M06/M11 A3067 RMK AO2 T10561111
KACP 170655Z AUTO 36008KT 10SM CLR M05/M11 A3067 RMK AO2 T10531110
KACP 170635Z AUTO 34008G14KT 10SM CLR M05/M11 A3067 RMK AO2 T10511110
KACP 170615Z AUTO 36010G16KT 10SM CLR M05/M11 A3066 RMK AO2 T10491111
KACP 170555Z AUTO 35008KT 10SM CLR M05/M10 A3067 RMK AO2 T10461105 11027 21046
KACP 170535Z AUTO 36010G17KT 10SM CLR M04/M10 A3067 RMK AO2 T10431100
KACP 170515Z AUTO 35012G20KT 10SM SCT029 M04/M09 A3067 RMK AO2 T10401095
KACP 170455Z AUTO 35011G15KT 10SM SCT029 SCT120 M03/M09 A3067 RMK AO2 T10351089 400771036
KACP 170435Z AUTO 34011G18KT 10SM SCT029 SCT120 M03/M09 A3067 RMK AO2 T10311087
KACP 170415Z AUTO 34009KT 10SM BKN027 M03/M08 A3067 RMK AO2 T10301081
KACP 170355Z AUTO 01010KT 10SM OVC027 M03/M07 A3066 RMK AO2 T10301075
KACP 170335Z AUTO 36009G15KT 10SM OVC027 M03/M07 A3066 RMK AO2 T10301075
KACP 170315Z AUTO 35005KT 10SM BKN027 OVC120 M03/M07 A3066 RMK AO2 T10291075
KACP 170255Z AUTO 36006G14KT 10SM SCT025 OVC120 M03/M07 A3065 RMK AO2 T10271075
KACP 170235Z AUTO 35006KT 10SM BKN025 OVC120 M03/M07 A3064 RMK AO2 T10271070
KACP 170215Z AUTO 36005KT 10SM OVC027 M03/M07 A3064 RMK AO2 T10271068
KACP 170155Z AUTO 36005KT 10SM BKN027 BKN075 OVC095 M03/M07 A3064 RMK AO2 T10281070
KACP 170135Z AUTO 36006KT 10SM SCT027 SCT075 OVC085 M03/M07 A3064 RMK AO2 T10301071
KACP 170115Z AUTO 35004KT 10SM SCT027 SCT075 OVC085 M03/M07 A3064 RMK AO2 T10301071
KACP 170055Z AUTO 35007KT 10SM OVC085 M03/M07 A3062 RMK AO2 T10301070
KACP 170035Z AUTO 01003KT 10SM OVC075 M03/M07 A3060 RMK AO2 T10311074
KACP 170015Z AUTO 01007KT 10SM BKN075 OVC095 M03/M07 A3060 RMK AO2 T10331073
KACP 162355Z AUTO 35005KT 10SM -SN OVC070 M03/M07 A3060 RMK AO2 P0001 60003 T10351074 11007 21036
KACP 162335Z AUTO 36009KT 2 1/2SM -SN SCT021 BKN028 OVC060 M04/M07 A3060 RMK AO2 P0001 T10361067
KACP 162315Z AUTO 36011G15KT 5SM -SN SCT019 BKN028 OVC034 M03/M06 A3059 RMK AO2 T10331065
KACP 162255Z AUTO 35009KT 5SM -SN BKN019 BKN032 OVC055 M03/M06 A3059 RMK AO2 T10311060
KACP 162235Z AUTO 35006KT 5SM -SN BKN017 BKN041 OVC065 M03/M06 A3059 RMK AO2 T10311058
KACP 162215Z AUTO 35009KT 5SM -SN SCT010 OVC015 M03/M05 A3058 RMK AO2 T10301053
KACP 162155Z AUTO 36008KT 3SM -SN OVC014 M03/M05 A3059 RMK AO2 T10301050
KACP 162135Z AUTO 34009KT 1 1/4SM -SN OVC014 M03/M05 A3059 RMK AO2 T10291050
KACP 162115Z AUTO 34012G16KT 1 1/2SM -SN OVC012 M03/M05 A3058 RMK AO2 T10261047
KACP 162055Z AUTO 34009KT 3SM -SN BKN010 OVC016 M02/M05 A3058 RMK AO2 P0002 60002 T10251046
KACP 162035Z AUTO 36010G15KT 1 1/4SM -SN SCT008 OVC012 M02/M04 A3057 RMK AO2 P0001 T10231043
KACP 162015Z AUTO 36008G17KT 2 1/2SM -SN OVC015 M02/M04 A3056 RMK AO2 P0001 T10201042
KACP 161955Z AUTO 36011G17KT 7SM -SN OVC016 M02/M04 A3057 RMK AO2 T10181041
KACP 161935Z AUTO 01011G20KT 10SM UP BKN014 OVC020 M02/M04 A3056 RMK AO2 T10171041
KACP 161915Z AUTO 36011G17KT 10SM UP BKN010 OVC020 M01/M04 A3058 RMK AO2 T10151038
KACP 161855Z AUTO 34010G14KT 10SM UP OVC012 M01/M03 A3059 RMK AO2 T10111030
KACP 161835Z AUTO 36009KT 10SM UP OVC012 M01/M03 A3059 RMK AO2 T10101028
KACP 161815Z AUTO 35009KT 3SM -SN SCT010 OVC015 M01/M03 A3059 RMK AO2 T10101029
KACP 161755Z AUTO 01008G16KT 7SM UP BKN013 OVC017 M01/M03 A3060 RMK AO2 60007 T10081028 10065 21008
KACP 161735Z AUTO 36010KT 3SM UP BKN010 OVC015 M01/M02 A3060 RMK AO2 T10081025
KACP 161715Z AUTO 36009G14KT 2 1/2SM -SN OVC013 M01/M02 A3062 RMK AO2 T10061022
KACP 161655Z AUTO 36007G18KT 4SM UP OVC011 M01/M02 A3062 RMK AO2 P0001 T10061022
KACP 161635Z AUTO 36008G15KT 1 1/2SM -SN BKN008 OVC013 00/M02 A3062 RMK AO2 P0001 T10041017
KACP 161615Z AUTO 36009G15KT 1SM -SN BKN004 OVC010 00/M01 A3061 RMK AO2 P0001 T10021015
KACP 161555Z AUTO 01009G14KT 2SM -SN OVC010 00/M01 A3061 RMK AO2 P0002 T00001015
KACP 161535Z AUTO 36012G19KT 3SM UP SCT009 OVC014 00/M01 A3060 RMK AO2 P0001 T00011012
KACP 161515Z AUTO 36010G18KT 4SM UP OVC011 00/M01 A3060 RMK AO2 T00011013
KACP 161455Z AUTO 35013G17KT 2 1/2SM -SN OVC011 00/M01 A3058 RMK AO2 VIS 2V4 P0001 60004 T00041010
KACP 161435Z AUTO 36009G17KT 7SM UP BKN012 BKN017 OVC023 01/M01 A3058 RMK AO2 T00061010